createdAt,value
2023-05-14T00:00:48.099Z,4.50
2023-05-14T00:03:15.916Z,4.38
2023-05-14T00:05:43.283Z,4.68
2023-05-14T00:08:10.551Z,4.05
2023-05-14T00:10:37.738Z,4.22
2023-05-14T00:13:05.292Z,4.15
2023-05-14T00:15:34.182Z,3.95
2023-05-14T00:18:01.801Z,3.97
2023-05-14T00:20:29.054Z,4.28
2023-05-14T00:22:56.495Z,4.50
2023-05-14T00:25:24.024Z,4.18
2023-05-14T00:27:51.186Z,3.75
2023-05-14T00:30:18.396Z,4.40
2023-05-14T00:32:45.635Z,3.97
2023-05-14T00:35:12.832Z,3.67
2023-05-14T00:37:40.052Z,3.80
2023-05-14T00:40:08.656Z,3.80
2023-05-14T00:42:35.944Z,3.95
2023-05-14T00:45:03.142Z,3.85
2023-05-14T00:47:30.434Z,4.13
2023-05-14T00:49:57.817Z,3.38
2023-05-14T00:52:25.057Z,3.97
2023-05-14T00:54:52.642Z,4.18
2023-05-14T00:57:19.949Z,3.50
2023-05-14T00:59:47.115Z,3.92
2023-05-14T01:02:14.321Z,3.75
2023-05-14T01:04:41.555Z,3.90
2023-05-14T01:07:30.447Z,3.60
2023-05-14T01:10:12.176Z,3.90
2023-05-14T01:12:59.086Z,3.60
2023-05-14T01:15:29.016Z,3.42
2023-05-14T01:18:01.208Z,3.42
2023-05-14T01:20:28.455Z,3.85
2023-05-14T01:22:55.639Z,3.60
2023-05-14T01:25:22.817Z,3.60
2023-05-14T01:27:52.416Z,3.45
2023-05-14T01:30:36.754Z,3.60
2023-05-14T01:33:07.220Z,3.58
2023-05-14T01:35:34.556Z,3.70
2023-05-14T01:38:03.851Z,3.63
2023-05-14T01:40:32.921Z,3.55
2023-05-14T01:43:00.934Z,4.00
2023-05-14T01:45:28.543Z,3.50
2023-05-14T01:47:55.863Z,3.42
2023-05-14T01:50:23.349Z,3.60
2023-05-14T01:52:53.421Z,3.42
2023-05-14T01:55:20.797Z,3.30
2023-05-14T01:57:48.044Z,3.40
2023-05-14T02:00:15.431Z,3.38
2023-05-14T02:02:42.848Z,3.22
2023-05-14T02:05:11.303Z,3.10
2023-05-14T02:07:38.505Z,3.03
2023-05-14T02:10:06.273Z,3.60
2023-05-14T02:12:33.586Z,3.00
2023-05-14T02:15:00.780Z,3.38
2023-05-14T02:17:28.100Z,3.10
2023-05-14T02:19:55.635Z,3.22
2023-05-14T02:22:22.822Z,3.58
2023-05-14T02:24:51.337Z,3.55
2023-05-14T02:27:18.768Z,3.15
2023-05-14T02:29:45.932Z,3.38
2023-05-14T02:32:13.185Z,2.80
2023-05-14T02:34:40.393Z,3.20
2023-05-14T02:37:07.812Z,3.15
2023-05-14T02:39:35.057Z,3.42
2023-05-14T02:42:02.360Z,3.00
2023-05-14T02:44:31.790Z,3.28
2023-05-14T02:46:59.152Z,2.92
2023-05-14T02:49:26.365Z,3.20
2023-05-14T02:51:54.367Z,2.85
2023-05-14T02:54:21.610Z,3.10
2023-05-14T02:56:48.811Z,3.15
2023-05-14T02:59:16.034Z,3.50
2023-05-14T03:01:43.705Z,3.30
2023-05-14T03:04:11.473Z,3.20
2023-05-14T03:06:38.749Z,3.25
2023-05-14T03:09:05.967Z,3.10
2023-05-14T03:11:33.224Z,2.80
2023-05-14T03:14:00.657Z,3.00
2023-05-14T03:16:30.288Z,2.72
2023-05-14T03:18:57.612Z,3.40
2023-05-14T03:21:25.583Z,3.08
2023-05-14T03:23:53.642Z,2.85
2023-05-14T03:26:21.657Z,2.77
2023-05-14T03:28:50.081Z,2.67
2023-05-14T03:31:17.430Z,3.08
2023-05-14T03:33:44.791Z,3.20
2023-05-14T03:36:11.991Z,3.10
2023-05-14T03:38:39.155Z,2.80
2023-05-14T03:41:06.469Z,2.97
2023-05-14T03:43:33.671Z,2.85
2023-05-14T03:46:00.913Z,2.97
2023-05-14T03:48:28.182Z,3.35
2023-05-14T03:50:55.595Z,2.80
2023-05-14T03:53:22.778Z,3.05
2023-05-14T03:55:50.085Z,3.22
2023-05-14T03:58:17.386Z,3.13
2023-05-14T04:00:44.749Z,2.40
2023-05-14T04:03:12.226Z,3.10
2023-05-14T04:05:39.568Z,2.80
2023-05-14T04:08:06.787Z,2.70
2023-05-14T04:10:34.066Z,2.80
2023-05-14T04:13:01.339Z,2.50
2023-05-14T04:15:28.529Z,2.70
2023-05-14T04:17:55.828Z,2.90
2023-05-14T04:20:23.233Z,2.80
2023-05-14T04:22:50.638Z,2.70
2023-05-14T04:25:18.577Z,2.75
2023-05-14T04:27:45.966Z,2.75
2023-05-14T04:30:13.294Z,2.50
2023-05-14T04:32:40.917Z,2.97
2023-05-14T04:35:10.158Z,2.92
2023-05-14T04:37:37.552Z,2.85
2023-05-14T04:40:06.732Z,2.90
2023-05-14T04:42:34.021Z,2.70
2023-05-14T04:45:01.192Z,2.60
2023-05-14T04:47:28.571Z,2.42
2023-05-14T04:49:55.738Z,2.42
2023-05-14T04:52:22.888Z,2.70
2023-05-14T04:54:50.409Z,2.80
2023-05-14T04:57:17.711Z,2.30
2023-05-14T04:59:45.251Z,2.90
2023-05-14T05:02:12.477Z,2.30
2023-05-14T05:04:39.961Z,2.80
2023-05-14T05:07:07.231Z,2.72
2023-05-14T05:09:34.432Z,2.25
2023-05-14T05:12:01.969Z,2.63
2023-05-14T05:14:29.259Z,2.45
2023-05-14T05:16:56.414Z,2.60
2023-05-14T05:19:35.768Z,2.28
2023-05-14T05:22:03.345Z,2.53
2023-05-14T05:24:30.587Z,2.70
2023-05-14T05:26:57.761Z,2.55
2023-05-14T05:29:25.174Z,2.60
2023-05-14T05:31:52.433Z,2.55
2023-05-14T05:34:20.183Z,2.63
2023-05-14T05:36:47.444Z,2.58
2023-05-14T05:39:14.704Z,2.30
2023-05-14T05:41:42.152Z,2.40
2023-05-14T05:44:09.427Z,2.78
2023-05-14T05:46:36.709Z,2.40
2023-05-14T05:49:03.946Z,2.58
2023-05-14T05:51:31.493Z,2.30
2023-05-14T05:53:58.696Z,2.28
2023-05-14T05:56:25.955Z,2.63
2023-05-14T05:58:53.199Z,2.40
2023-05-14T06:01:20.613Z,2.38
2023-05-14T06:03:48.705Z,2.20
2023-05-14T06:06:16.125Z,2.40
2023-05-14T06:08:43.350Z,2.15
2023-05-14T06:11:11.142Z,2.25
2023-05-14T06:13:38.395Z,2.60
2023-05-14T06:16:05.753Z,2.40
2023-05-14T06:18:33.004Z,2.20
2023-05-14T06:21:00.368Z,2.20
2023-05-14T06:23:27.701Z,2.40
2023-05-14T06:25:54.984Z,2.70
2023-05-14T06:28:22.211Z,2.50
2023-05-14T06:30:53.999Z,2.03
2023-05-14T06:33:29.688Z,2.33
2023-05-14T06:36:00.961Z,2.17
2023-05-14T06:38:28.400Z,2.25
2023-05-14T06:40:55.707Z,2.67
2023-05-14T06:43:23.190Z,2.45
2023-05-14T06:45:51.474Z,2.00
2023-05-14T06:48:19.530Z,2.03
2023-05-14T06:50:47.640Z,2.70
2023-05-14T06:53:15.358Z,1.87
2023-05-14T06:55:42.705Z,2.00
2023-05-14T06:58:10.416Z,2.22
2023-05-14T07:00:37.731Z,2.30
2023-05-14T07:03:05.073Z,2.00
2023-05-14T07:05:32.418Z,2.15
2023-05-14T07:07:59.780Z,2.00
2023-05-14T07:10:27.226Z,1.92
2023-05-14T07:12:54.690Z,2.20
2023-05-14T07:15:22.008Z,2.22
2023-05-14T07:17:49.760Z,2.13
2023-05-14T07:20:17.126Z,2.30
2023-05-14T07:22:44.327Z,2.30
2023-05-14T07:25:12.681Z,2.35
2023-05-14T07:27:39.842Z,2.40
2023-05-14T07:30:08.151Z,2.10
2023-05-14T07:32:35.429Z,2.35
2023-05-14T07:35:02.666Z,2.00
2023-05-14T07:37:29.917Z,2.00
2023-05-14T07:39:57.586Z,2.00
2023-05-14T07:42:35.130Z,2.00
2023-05-14T07:45:03.299Z,2.23
2023-05-14T07:47:31.061Z,2.35
2023-05-14T07:49:58.893Z,2.50
2023-05-14T07:52:26.435Z,2.20
2023-05-14T07:54:53.759Z,2.25
2023-05-14T07:57:20.972Z,2.63
2023-05-14T07:59:49.000Z,3.00
2023-05-14T08:02:16.995Z,2.77
2023-05-14T08:04:44.852Z,3.30
2023-05-14T08:07:12.326Z,2.85
2023-05-14T08:09:39.849Z,3.10
2023-05-14T08:12:07.648Z,3.10
2023-05-14T08:14:35.028Z,3.25
2023-05-14T08:17:02.527Z,2.83
2023-05-14T08:19:29.812Z,3.25
2023-05-14T08:21:57.303Z,2.70
2023-05-14T08:24:24.617Z,3.33
2023-05-14T08:26:52.457Z,3.15
2023-05-14T08:29:19.652Z,2.97
2023-05-14T08:31:47.001Z,3.20
2023-05-14T08:34:14.542Z,3.72
2023-05-14T08:36:41.790Z,2.90
2023-05-14T08:39:09.077Z,3.38
2023-05-14T08:41:37.520Z,3.40
2023-05-14T08:44:12.456Z,2.70
2023-05-14T08:46:40.912Z,3.30
2023-05-14T08:49:16.789Z,3.33
2023-05-14T08:51:47.048Z,3.33
2023-05-14T08:54:17.877Z,3.13
2023-05-14T08:56:50.563Z,3.33
2023-05-14T08:59:19.281Z,3.33
2023-05-14T09:01:53.284Z,3.47
2023-05-14T09:04:23.123Z,3.10
2023-05-14T09:06:52.200Z,3.60
2023-05-14T09:11:51.047Z,3.60
2023-05-14T09:14:18.526Z,3.00
2023-05-14T09:16:48.158Z,3.25
2023-05-14T09:19:16.148Z,3.20
2023-05-14T09:21:45.636Z,3.47
2023-05-14T09:24:23.955Z,3.28
2023-05-14T09:26:56.235Z,3.33
2023-05-14T09:29:27.584Z,3.10
2023-05-14T09:31:55.963Z,3.00
2023-05-14T09:34:28.760Z,3.08
2023-05-14T09:37:01.284Z,3.10
2023-05-14T09:39:28.985Z,3.13
2023-05-14T09:41:56.389Z,3.17
2023-05-14T09:44:24.151Z,3.28
2023-05-14T09:46:52.581Z,3.03
2023-05-14T09:49:20.425Z,3.00
2023-05-14T09:51:50.876Z,3.05
2023-05-14T09:54:18.589Z,3.08
2023-05-14T09:56:46.291Z,3.22
2023-05-14T09:59:13.737Z,3.17
2023-05-14T10:01:43.635Z,3.15
2023-05-14T10:04:11.922Z,3.42
2023-05-14T10:06:39.701Z,3.38
2023-05-14T10:09:14.110Z,3.22
2023-05-14T10:11:44.510Z,3.08
2023-05-14T10:14:29.617Z,2.60
2023-05-14T10:16:57.261Z,2.80
2023-05-14T10:19:26.266Z,3.00
2023-05-14T10:22:06.143Z,2.80
2023-05-14T10:24:34.101Z,3.17
2023-05-14T10:27:02.329Z,2.80
2023-05-14T10:29:35.459Z,2.78
2023-05-14T10:32:09.508Z,2.80
2023-05-14T10:34:43.837Z,2.38
2023-05-14T10:37:16.634Z,3.00
2023-05-14T10:39:50.152Z,2.75
2023-05-14T10:42:22.669Z,2.83
2023-05-14T10:45:03.174Z,2.90
2023-05-14T10:47:32.143Z,3.00
2023-05-14T10:52:27.735Z,3.27
2023-05-14T10:55:03.123Z,3.25
2023-05-14T10:57:32.276Z,3.08
2023-05-14T11:00:02.014Z,3.30
2023-05-14T11:02:31.225Z,2.83
2023-05-14T11:05:04.000Z,3.03
2023-05-14T11:07:36.072Z,3.20
2023-05-14T11:10:08.852Z,3.17
2023-05-14T11:12:37.995Z,3.10
2023-05-14T11:15:09.294Z,3.33
2023-05-14T11:17:37.765Z,2.97
2023-05-14T11:20:06.567Z,3.10
2023-05-14T11:22:34.227Z,2.92
2023-05-14T11:25:01.431Z,2.50
2023-05-14T11:27:28.804Z,3.00
2023-05-14T11:29:56.095Z,2.72
2023-05-14T11:32:23.641Z,2.70
2023-05-14T11:34:51.403Z,2.53
2023-05-14T11:37:18.622Z,2.60
2023-05-14T11:39:53.435Z,2.90
2023-05-14T11:42:22.322Z,2.83
2023-05-14T11:47:18.673Z,3.10
2023-05-14T11:49:46.276Z,2.85
2023-05-14T11:52:14.941Z,3.03
2023-05-14T11:54:43.479Z,2.92
2023-05-14T11:57:17.126Z,3.00
2023-05-14T11:59:45.244Z,2.63
2023-05-14T12:02:22.847Z,2.70
2023-05-14T12:04:54.215Z,2.75
2023-05-14T12:07:21.455Z,2.88
2023-05-14T12:09:49.858Z,2.70
2023-05-14T12:12:22.832Z,2.78
2023-05-14T12:14:51.102Z,2.70
2023-05-14T12:17:19.920Z,2.47
2023-05-14T12:19:49.263Z,2.65
2023-05-14T12:22:18.491Z,2.65
2023-05-14T12:24:54.603Z,2.75
2023-05-14T12:27:26.467Z,3.20
2023-05-14T12:30:19.258Z,3.78
2023-05-14T12:32:51.493Z,5.28
2023-05-14T12:35:19.202Z,5.82
2023-05-14T12:37:46.859Z,5.22
2023-05-14T12:40:14.340Z,4.70
2023-05-14T12:42:41.668Z,5.60
2023-05-14T12:45:09.082Z,5.10
2023-05-14T12:47:37.076Z,3.90
2023-05-14T12:50:05.090Z,3.90
2023-05-14T12:52:38.352Z,3.38
2023-05-14T12:55:07.573Z,3.80
2023-05-14T12:57:35.660Z,3.40
2023-05-14T13:00:06.851Z,3.42
2023-05-14T13:02:42.685Z,3.40
2023-05-14T13:05:11.856Z,3.88
2023-05-14T13:07:39.356Z,3.70
2023-05-14T13:10:07.397Z,4.28
2023-05-14T13:12:35.047Z,3.30
2023-05-14T13:15:02.295Z,3.40
2023-05-14T13:17:29.670Z,3.25
2023-05-14T13:19:57.026Z,4.13
2023-05-14T13:22:24.355Z,4.68
2023-05-14T13:24:51.562Z,4.97
2023-05-14T13:27:18.804Z,4.80
2023-05-14T13:29:46.230Z,4.78
2023-05-14T13:32:13.418Z,5.18
2023-05-14T13:34:40.755Z,4.78
2023-05-14T13:37:08.062Z,4.13
2023-05-14T13:39:35.311Z,3.30
2023-05-14T13:42:02.578Z,3.55
2023-05-14T13:44:30.301Z,3.38
2023-05-14T13:46:57.579Z,3.20
2023-05-14T13:49:24.839Z,3.20
2023-05-14T13:51:52.074Z,3.03
2023-05-14T13:54:19.327Z,2.90
2023-05-14T13:56:46.605Z,2.90
2023-05-14T13:59:13.881Z,2.90
2023-05-14T14:01:43.317Z,3.13
2023-05-14T14:04:11.075Z,3.28
2023-05-14T14:06:38.358Z,2.97
2023-05-14T14:09:05.535Z,2.67
2023-05-14T14:11:32.749Z,2.60
2023-05-14T14:13:59.963Z,2.65
2023-05-14T14:16:27.287Z,2.72
2023-05-14T14:18:54.573Z,2.55
2023-05-14T14:21:21.866Z,2.92
2023-05-14T14:23:49.128Z,2.75
2023-05-14T14:26:16.304Z,3.00
2023-05-14T14:28:43.597Z,2.85
2023-05-14T14:31:11.412Z,3.30
2023-05-14T14:33:38.696Z,3.25
2023-05-14T14:36:06.535Z,2.83
2023-05-14T14:38:33.783Z,2.60
2023-05-14T14:41:03.206Z,2.90
2023-05-14T14:43:30.558Z,3.00
2023-05-14T14:45:57.799Z,2.80
2023-05-14T14:48:39.916Z,2.63
2023-05-14T14:51:07.977Z,2.70
2023-05-14T14:53:36.296Z,3.10
2023-05-14T14:56:03.537Z,2.83
2023-05-14T14:58:31.201Z,3.03
2023-05-14T15:00:58.961Z,2.88
2023-05-14T15:03:26.748Z,3.30
2023-05-14T15:05:54.372Z,3.22
2023-05-14T15:08:26.343Z,2.92
2023-05-14T15:10:54.050Z,3.05
2023-05-14T15:13:21.217Z,3.15
2023-05-14T15:15:50.339Z,2.70
2023-05-14T15:18:17.653Z,2.90
2023-05-14T15:20:45.065Z,3.30
2023-05-14T15:23:12.259Z,2.90
2023-05-14T15:25:39.581Z,3.60
2023-05-14T15:28:10.220Z,3.42
2023-05-14T15:30:37.414Z,3.00
2023-05-14T15:33:05.125Z,2.88
2023-05-14T15:35:32.415Z,2.65
2023-05-14T15:37:59.663Z,3.00
2023-05-14T15:40:27.983Z,3.53
2023-05-14T15:42:55.376Z,3.25
2023-05-14T15:45:22.639Z,3.03
2023-05-14T15:47:49.978Z,3.42
2023-05-14T15:50:17.464Z,3.47
2023-05-14T15:52:44.675Z,3.00
2023-05-14T15:55:12.128Z,3.25
2023-05-14T15:57:39.349Z,3.70
2023-05-14T16:00:10.956Z,2.85
2023-05-14T16:02:39.220Z,3.30
2023-05-14T16:05:07.516Z,3.22
2023-05-14T16:07:34.886Z,3.13
2023-05-14T16:10:02.085Z,3.30
2023-05-14T16:12:29.289Z,3.30
2023-05-14T16:14:57.704Z,3.22
2023-05-14T16:17:25.993Z,3.17
2023-05-14T16:19:55.348Z,3.30
2023-05-14T16:22:23.462Z,4.30
2023-05-14T16:24:50.703Z,4.43
2023-05-14T16:27:19.169Z,4.35
2023-05-14T16:29:46.528Z,6.50
2023-05-14T16:32:13.976Z,9.63
2023-05-14T16:34:41.498Z,7.43
2023-05-14T16:37:11.286Z,9.10
2023-05-14T16:39:39.679Z,10.32
2023-05-14T16:42:06.873Z,9.02
2023-05-14T16:44:34.100Z,9.43
2023-05-14T16:47:01.293Z,7.40
2023-05-14T16:49:28.811Z,6.15
2023-05-14T16:51:55.991Z,6.00
2023-05-14T16:54:23.277Z,6.43
2023-05-14T16:56:50.689Z,5.72
2023-05-14T16:59:17.988Z,5.13
2023-05-14T17:01:46.357Z,4.88
2023-05-14T17:04:13.564Z,3.78
2023-05-14T17:06:40.854Z,3.92
2023-05-14T17:09:08.077Z,4.65
2023-05-14T17:11:35.416Z,3.80
2023-05-14T17:14:02.638Z,3.65
2023-05-14T17:16:29.881Z,4.07
2023-05-14T17:18:57.160Z,3.70
2023-05-14T17:21:24.603Z,3.67
2023-05-14T17:23:51.992Z,3.47
2023-05-14T17:26:19.247Z,3.25
2023-05-14T17:28:46.458Z,3.25
2023-05-14T17:31:13.683Z,3.10
2023-05-14T17:33:40.922Z,3.10
2023-05-14T17:36:08.285Z,3.33
2023-05-14T17:38:35.665Z,2.75
2023-05-14T17:41:02.845Z,3.08
2023-05-14T17:43:30.148Z,3.40
2023-05-14T17:45:57.425Z,4.63
2023-05-14T17:48:24.720Z,4.07
2023-05-14T17:50:52.342Z,3.22
2023-05-14T17:53:19.681Z,3.05
2023-05-14T17:55:46.903Z,3.40
2023-05-14T17:58:15.984Z,2.60
2023-05-14T18:00:43.937Z,3.13
2023-05-14T18:03:11.648Z,2.90
2023-05-14T18:05:39.076Z,3.15
2023-05-14T18:08:06.546Z,2.78
2023-05-14T18:10:33.774Z,3.35
2023-05-14T18:13:01.006Z,3.20
2023-05-14T18:15:28.461Z,2.70
2023-05-14T18:17:55.793Z,2.42
2023-05-14T18:20:22.958Z,2.97
2023-05-14T18:22:51.496Z,3.00
2023-05-14T18:25:18.961Z,3.00
2023-05-14T18:27:47.070Z,3.50
2023-05-14T18:30:15.719Z,3.03
2023-05-14T18:32:44.349Z,3.50
2023-05-14T18:35:12.536Z,3.40
2023-05-14T18:37:39.940Z,3.20
2023-05-14T18:40:08.896Z,3.08
2023-05-14T18:45:04.358Z,2.90
2023-05-14T18:47:32.493Z,2.57
2023-05-14T18:50:01.819Z,2.78
2023-05-14T18:52:29.479Z,2.83
2023-05-14T18:54:57.115Z,2.70
2023-05-14T18:57:24.417Z,3.08
2023-05-14T18:59:53.513Z,3.08
2023-05-14T19:02:20.846Z,2.70
2023-05-14T19:04:52.747Z,2.63
2023-05-14T19:07:21.369Z,2.97
2023-05-14T19:09:48.797Z,3.00
2023-05-14T19:12:16.391Z,2.85
2023-05-14T19:14:43.693Z,3.00
2023-05-14T19:17:11.448Z,2.95
2023-05-14T19:19:39.414Z,3.47
2023-05-14T19:22:07.033Z,3.47
2023-05-14T19:24:34.328Z,4.05
2023-05-14T19:27:02.029Z,5.13
2023-05-14T19:29:29.418Z,5.72
2023-05-14T19:31:57.008Z,7.15
2023-05-14T19:34:24.287Z,5.60
2023-05-14T19:36:51.671Z,5.68
2023-05-14T19:39:18.940Z,5.70
2023-05-14T19:41:46.396Z,4.90
2023-05-14T19:44:13.620Z,5.28
2023-05-14T19:46:41.371Z,5.15
2023-05-14T19:49:08.773Z,4.03
2023-05-14T19:51:36.222Z,4.07
2023-05-14T19:54:03.832Z,4.28
2023-05-14T19:56:31.215Z,3.90
2023-05-14T19:58:58.689Z,3.58
2023-05-14T20:01:26.791Z,4.05
2023-05-14T20:03:54.166Z,3.97
2023-05-14T20:06:21.629Z,3.92
2023-05-14T20:08:49.050Z,3.70
2023-05-14T20:11:18.164Z,3.60
2023-05-14T20:13:47.856Z,3.80
2023-05-14T20:16:16.855Z,3.80
2023-05-14T20:18:44.627Z,3.55
2023-05-14T20:21:11.872Z,3.85
2023-05-14T20:23:39.541Z,3.70
2023-05-14T20:26:06.717Z,3.60
2023-05-14T20:28:34.053Z,3.50
2023-05-14T20:31:03.867Z,3.25
2023-05-14T20:33:31.571Z,3.08
2023-05-14T20:35:58.973Z,3.33
2023-05-14T20:38:29.202Z,3.25
2023-05-14T20:40:56.406Z,2.78
2023-05-14T20:43:23.622Z,3.70
2023-05-14T20:45:51.370Z,2.92
2023-05-14T20:48:21.240Z,3.13
2023-05-14T20:50:48.784Z,2.95
2023-05-14T20:53:16.207Z,3.28
2023-05-14T20:55:44.714Z,3.33
2023-05-14T20:58:11.899Z,3.30
2023-05-14T21:00:39.279Z,3.03
2023-05-14T21:03:06.824Z,3.17
2023-05-14T21:05:34.719Z,3.28
2023-05-14T21:08:01.954Z,3.15
2023-05-14T21:10:29.198Z,3.10
2023-05-14T21:12:56.384Z,3.10
2023-05-14T21:15:23.944Z,3.17
2023-05-14T21:17:51.359Z,2.90
2023-05-14T21:20:18.650Z,2.80
2023-05-14T21:22:46.003Z,3.47
2023-05-14T21:25:13.610Z,3.00
2023-05-14T21:27:40.857Z,2.70
2023-05-14T21:30:08.631Z,3.22
2023-05-14T21:32:35.839Z,2.97
2023-05-14T21:35:03.521Z,2.90
2023-05-14T21:37:30.876Z,2.72
2023-05-14T21:39:58.149Z,3.00
2023-05-14T21:42:25.455Z,2.42
2023-05-14T21:44:52.688Z,2.60
2023-05-14T21:47:21.041Z,2.42
2023-05-14T21:49:48.429Z,2.55
2023-05-14T21:52:16.256Z,2.50
2023-05-14T21:54:43.564Z,2.53
2023-05-14T21:57:10.781Z,2.72
2023-05-14T21:59:37.922Z,2.92
2023-05-14T22:02:07.210Z,3.20
2023-05-14T22:04:35.195Z,2.80
2023-05-14T22:07:03.068Z,2.83
2023-05-14T22:09:30.556Z,2.85
2023-05-14T22:11:58.369Z,2.72
2023-05-14T22:14:27.239Z,3.08
2023-05-14T22:16:54.802Z,3.00
2023-05-14T22:19:22.553Z,2.80
2023-05-14T22:21:49.735Z,3.05
2023-05-14T22:24:17.220Z,3.10
2023-05-14T22:26:44.708Z,2.65
2023-05-14T22:29:11.935Z,2.58
2023-05-14T22:31:39.146Z,2.70
2023-05-14T22:34:06.371Z,3.15
2023-05-14T22:36:33.779Z,2.80
2023-05-14T22:39:01.008Z,2.90
2023-05-14T22:41:28.202Z,2.75
2023-05-14T22:43:55.442Z,2.95
2023-05-14T22:46:22.606Z,2.78
2023-05-14T22:48:49.882Z,3.35
2023-05-14T22:51:17.776Z,2.60
2023-05-14T22:53:45.498Z,2.70
2023-05-14T22:56:12.698Z,2.53
2023-05-14T22:58:39.964Z,2.60
2023-05-14T23:01:07.170Z,2.50
2023-05-14T23:03:34.393Z,2.40
2023-05-14T23:06:01.778Z,2.63
2023-05-14T23:08:28.996Z,2.63
2023-05-14T23:10:56.186Z,2.60
2023-05-14T23:13:23.398Z,2.78
2023-05-14T23:15:50.708Z,2.60
2023-05-14T23:18:17.990Z,2.72
2023-05-14T23:20:45.360Z,2.47
2023-05-14T23:23:12.539Z,2.50
2023-05-14T23:25:39.936Z,2.17
2023-05-14T23:28:07.236Z,2.72
2023-05-14T23:30:34.568Z,2.58
2023-05-14T23:33:01.772Z,2.30
2023-05-14T23:35:29.036Z,2.40
2023-05-14T23:37:56.244Z,2.10
2023-05-14T23:40:23.483Z,2.45
2023-05-14T23:42:50.735Z,2.40
2023-05-14T23:45:18.033Z,2.20
2023-05-14T23:47:45.508Z,2.58
2023-05-14T23:50:12.761Z,2.60
2023-05-14T23:52:40.218Z,2.08
2023-05-14T23:55:07.630Z,2.20
2023-05-14T23:57:35.405Z,2.10
